YXPM weather

Port Macquarie Hospital Helipad
Port Macquarie, New South Wales, Australia

Public forecast

Using degrees Celsius for public forecast. Weather courtesy of forecast.io.

Closest aviation weather report (METAR) to Port Macquarie Hospital Helipad

Report is more than 6 hours old.

Closest report is Port Macquarie Airport, 1.4 nm (2.5 km) NW. Retrieved 2019/10/13 15:30 UTC (9 hours ago):

YPMQ 131530Z AUTO 00000KT 2700 // NCD 08/07 Q1019

Closest aviation forecast (TAF) to Port Macquarie Hospital Helipad

Closest forecast is Taree Airport, 32.2 nm (59.6 km) SW. Retrieved 2019-10-14 02:03 UTC (0 seconds ago):

TAF YTRE 140050Z 1402/1414 05012KT CAVOK FM140900 03005KT 9999 SCT020 PROB30 1411/1414 0500 FG